Shinyo Maru — JD3650 — position and weather

sailwx.info

Track history (hours):
 
Tides and Currents Weather Stations Pressure Air Temp Water Temp Dewpoint Dewpoint Depression Visibility Wind Speed Wind Dir Waves Ship Positions

Shinyo Maru

Last reported at 2018-Feb-21 13:16 UTC. Time now 2018-Feb-22 07:07 UTC.
Position N 34°27' E 134°03'.

Length 72 m; draft 3.8 m.

Type: Tanker. MMSI: 431005249.

Date/timePositionNaut miles runAvg speedWind from/ knotsBaromVisibWave heightAir tempDewpointWater temp
2018-Feb-21 13:16N 34°27' E 134°03'1713.3
2018-Feb-21 11:57N 34°22' E 134°23'713.1
2018-Feb-21 11:27N 34°19' E 134°30'612.8
2018-Feb-21 10:57N 34°16' E 134°37'912.5
2018-Feb-21 10:12N 34°08' E 134°44'312.3
2018-Feb-21 09:59N 34°06' E 134°46'812.3
2018-Feb-21 09:19N 33°60' E 134°52'412.6
2018-Feb-21 09:00N 33°57' E 134°55'611.8
2018-Feb-21 08:30N 33°53' E 135°00'16710.7
2018-Feb-20 16:52N 34°35' E 138°16'510.9
2018-Feb-20 16:22N 34°37' E 138°22'410.7
2018-Feb-20 16:00N 34°39' E 138°26'510.3
2018-Feb-20 15:28N 34°38' E 138°32'5 9.9
2018-Feb-20 15:00N 34°37' E 138°38'9 8.2
2018-Feb-20 13:54N 34°35' E 138°49'5 7.3
2018-Feb-20 13:16N 34°36' E 138°54'3 8.7
2018-Feb-20 12:57N 34°36' E 138°57'511.6
2018-Feb-20 12:30N 34°40' E 139°02'1013.4
2018-Feb-20 11:47N 34°48' E 139°09'2012.4
2018-Feb-20 10:08N 34°59' E 139°30'412.2
2018-Feb-20 09:47N 35°02' E 139°34'312.6
2018-Feb-20 09:30N 35°04' E 139°37'612.5
2018-Feb-20 08:59N 35°08' E 139°43'612.3
2018-Feb-20 08:30N 35°14' E 139°46'510.9
2018-Feb-20 08:00N 35°19' E 139°44'611.1
2018-Feb-20 07:30N 35°24' E 139°43'510.3
2018-Feb-20 07:00N 35°29' E 139°43'0 0.7
2018-Feb-20 06:29N 35°29' E 139°43'0 0.0
2018-Feb-20 05:59N 35°29' E 139°43'0 0.0
2018-Feb-20 05:29N 35°29' E 139°43'0 0.0
2018-Feb-20 04:56N 35°29' E 139°43'0 0.0
2018-Feb-20 04:29N 35°29' E 139°43'0 0.0
2018-Feb-20 04:00N 35°29' E 139°43'5 9.3
2018-Feb-20 03:30N 35°30' E 139°48'2 3.0
2018-Feb-20 03:00N 35°30' E 139°50'612.4
2018-Feb-20 02:29N 35°32' E 139°58'612.0
2018-Feb-20 01:58N 35°32' E 140°05'0 0.0
2018-Feb-19 23:44N 35°32' E 140°05'1 5.7
2018-Feb-19 23:31N 35°33' E 140°04'510.9
2018-Feb-19 23:00N 35°31' E 139°58'4 6.8
2018-Feb-19 22:29N 35°28' E 139°55'0 0.0
2018-Feb-19 22:00N 35°28' E 139°55'0 0.0
2018-Feb-19 21:30N 35°28' E 139°55'0 0.0
2018-Feb-19 21:00N 35°28' E 139°55'0 0.0
2018-Feb-19 20:30N 35°28' E 139°55'0 0.0
2018-Feb-19 20:00N 35°28' E 139°55'0 0.0
2018-Feb-19 19:30N 35°28' E 139°55'0 0.0
2018-Feb-19 19:00N 35°28' E 139°55'0 0.0
2018-Feb-19 18:30N 35°28' E 139°55'0 0.0
2018-Feb-19 18:00N 35°28' E 139°55'2 5.0
2018-Feb-19 17:30N 35°30' E 139°57'4 7.5
2018-Feb-19 17:00N 35°29' E 139°53'612.3
2018-Feb-19 16:30N 35°25' E 139°47'612.2
2018-Feb-19 16:00N 35°19' E 139°44'611.7
2018-Feb-19 15:30N 35°14' E 139°47'612.0
2018-Feb-19 15:00N 35°08' E 139°45'612.4
2018-Feb-19 14:30N 35°03' E 139°41'712.5
2018-Feb-19 13:54N 34°59' E 139°33'512.5
2018-Feb-19 13:29N 34°56' E 139°28'612.6
2018-Feb-19 12:58N 34°52' E 139°22'713.3
2018-Feb-19 12:28N 34°47' E 139°16'713.6
2018-Feb-19 11:59N 34°42' E 139°10'612.7
2018-Feb-19 11:30N 34°39' E 139°04'612.2
2018-Feb-19 11:00N 34°36' E 138°58'612.3
2018-Feb-19 10:30N 34°34' E 138°50'612.5
2018-Feb-19 10:00N 34°34' E 138°43'713.0
2018-Feb-19 09:30N 34°33' E 138°35'713.1
2018-Feb-19 09:00N 34°33' E 138°27'812.8
2018-Feb-19 08:22N 34°32' E 138°17'16311.1
2018-Feb-18 17:44N 33°45' E 135°09'313.0
2018-Feb-18 17:30N 33°47' E 135°06'613.2
2018-Feb-18 17:01N 33°52' E 135°01'713.1
2018-Feb-18 16:31N 33°57' E 134°56'713.0
2018-Feb-18 15:59N 34°02' E 134°51'612.8
2018-Feb-18 15:31N 34°07' E 134°46'713.5
2018-Feb-18 15:00N 34°12' E 134°41'713.5
2018-Feb-18 14:30N 34°17' E 134°35'612.6
2018-Feb-18 13:59N 34°19' E 134°27'2 0.1
2018-Feb-17 08:01N 34°18' E 134°30'112.0
2018-Feb-17 07:58N 34°18' E 134°31'511.4
2018-Feb-17 07:29N 34°16' E 134°37'10 9.9
2018-Feb-17 06:31N 34°09' E 134°44'111.4
2018-Feb-17 06:25N 34°08' E 134°45'511.2
2018-Feb-17 06:00N 34°04' E 134°49'611.2
2018-Feb-17 05:26N 33°60' E 134°54'511.3
2018-Feb-17 05:00N 33°56' E 134°58'610.7
2018-Feb-17 04:25N 33°52' E 135°04'16310.2
2018-Feb-16 12:27N 34°33' E 138°15'1212.0
2018-Feb-16 11:29N 34°35' E 138°29'711.9
2018-Feb-16 10:52N 34°35' E 138°38'911.8
2018-Feb-16 10:08N 34°35' E 138°49'512.5
2018-Feb-16 09:42N 34°36' E 138°55'412.3
2018-Feb-16 09:23N 34°38' E 138°59'513.2
2018-Feb-16 09:00N 34°42' E 139°03'712.5
2018-Feb-16 08:29N 34°47' E 139°07'2011.8
2018-Feb-16 06:46N 34°59' E 139°27'411.1
2018-Feb-16 06:24N 35°02' E 139°31'612.1
2018-Feb-16 05:52N 35°05' E 139°38'513.0
2018-Feb-16 05:30N 35°08' E 139°42'612.6
2018-Feb-16 05:00N 35°13' E 139°46'611.9
2018-Feb-16 04:30N 35°19' E 139°43'611.5
2018-Feb-16 04:00N 35°25' E 139°43'612.7
2018-Feb-16 03:30N 35°28' E 139°49'712.9
2018-Feb-16 03:00N 35°31' E 139°56'612.7
2018-Feb-16 02:30N 35°33' E 140°04'2 0.6
2018-Feb-15 23:12N 35°32' E 140°05'1 4.3
2018-Feb-15 23:00N 35°33' E 140°05'3 3.1
2018-Feb-15 22:08N 35°34' E 140°01'0 0.1
2018-Feb-15 21:56N 35°34' E 140°01'0 0.1
2018-Feb-15 21:26N 35°34' E 140°01'0 0.0
2018-Feb-15 20:59N 35°34' E 140°01'0 0.1
2018-Feb-15 20:26N 35°34' E 140°01'0 0.1
2018-Feb-15 19:56N 35°34' E 140°01'0 0.0
2018-Feb-15 19:26N 35°34' E 140°01'0 0.0
2018-Feb-15 18:56N 35°34' E 140°01'0 0.0
2018-Feb-15 18:26N 35°34' E 140°01'0 0.1
2018-Feb-15 17:56N 35°34' E 140°01'0 0.0
2018-Feb-15 17:26N 35°34' E 140°01'4 8.9
2018-Feb-15 17:00N 35°32' E 139°57'612.9
2018-Feb-15 16:31N 35°28' E 139°51'612.5
2018-Feb-15 16:01N 35°23' E 139°46'612.0
2018-Feb-15 15:30N 35°17' E 139°45'611.9
2018-Feb-15 15:00N 35°11' E 139°47'912.2
2018-Feb-15 14:16N 35°04' E 139°41'312.4
2018-Feb-15 14:00N 35°02' E 139°38'712.5
2018-Feb-15 13:25N 34°57' E 139°31'613.4
2018-Feb-15 13:00N 34°54' E 139°25'713.8
2018-Feb-15 12:30N 34°49' E 139°19'713.4
2018-Feb-15 12:00N 34°45' E 139°13'713.1
2018-Feb-15 11:30N 34°40' E 139°07'713.7
2018-Feb-15 11:01N 34°37' E 138°60'714.1
2018-Feb-15 10:30N 34°34' E 138°52'712.9
2018-Feb-15 09:57N 34°34' E 138°43'612.5
2018-Feb-15 09:29N 34°33' E 138°36'712.5
2018-Feb-15 08:57N 34°33' E 138°28'612.7
2018-Feb-15 08:28N 34°33' E 138°20'1013.3
2018-Feb-15 07:44N 34°32' E 138°09'4412.3
2018-Feb-15 04:10N 34°32' E 137°15'212.8
2018-Feb-15 04:00N 34°32' E 137°13'812.6
2018-Feb-15 03:23N 34°32' E 137°03'911.1
2018-Feb-15 02:36N 34°40' E 136°58'313.3
2018-Feb-15 02:21N 34°43' E 136°59'413.0
2018-Feb-15 02:00N 34°47' E 136°57'4 1.3
2018-Feb-14 22:51N 34°52' E 136°56'2 5.3
2018-Feb-14 22:31N 34°50' E 136°57'712.0
2018-Feb-14 21:57N 34°43' E 136°59'612.2
2018-Feb-14 21:30N 34°38' E 136°58'105 8.8
2018-Feb-14 09:38N 33°48' E 135°07'311.8
2018-Feb-14 09:24N 33°50' E 135°04'511.8
2018-Feb-14 09:01N 33°53' E 135°00'611.2
2018-Feb-14 08:30N 33°57' E 134°55'611.7
2018-Feb-14 08:00N 34°02' E 134°51'612.1
2018-Feb-14 07:30N 34°06' E 134°47'612.1
2018-Feb-14 07:00N 34°11' E 134°42'612.0
2018-Feb-14 06:29N 34°16' E 134°37'611.9
2018-Feb-14 06:00N 34°18' E 134°31'612.1
2018-Feb-14 05:31N 34°20' E 134°24'80 5.5
2018-Feb-13 14:47N 34°04' E 132°49'412.2
2018-Feb-13 14:29N 34°01' E 132°46'612.2
2018-Feb-13 14:00N 33°57' E 132°42'612.5
2018-Feb-13 13:30N 33°53' E 132°35'1012.6
2018-Feb-13 12:43N 33°50' E 132°24'312.6
2018-Feb-13 12:30N 33°50' E 132°21'712.9
2018-Feb-13 11:56N 33°49' E 132°12'612.8
2018-Feb-13 11:26N 33°46' E 132°05'612.6
2018-Feb-13 10:58N 33°45' E 131°58'613.0
2018-Feb-13 10:29N 33°46' E 131°51'612.8
2018-Feb-13 10:00N 33°47' E 131°43'612.5
2018-Feb-13 09:30N 33°48' E 131°36'612.6
2018-Feb-13 09:00N 33°50' E 131°29'612.5
2018-Feb-13 08:30N 33°51' E 131°21'612.3
2018-Feb-13 08:00N 33°53' E 131°14'612.7
2018-Feb-13 07:30N 33°55' E 131°07'612.7
2018-Feb-13 07:00N 33°58' E 131°01'612.3
2018-Feb-13 06:31N 33°54' E 130°55'5 9.3
2018-Feb-13 06:00N 33°58' E 130°52'0 0.0
2018-Feb-13 05:27N 33°58' E 130°52'0 0.0
2018-Feb-13 05:00N 33°58' E 130°52'0 0.0
2018-Feb-13 04:30N 33°58' E 130°52'0 0.0
2018-Feb-13 04:00N 33°58' E 130°52'0 0.1
2018-Feb-13 03:30N 33°58' E 130°52'2 4.2
2018-Feb-13 02:55N 33°56' E 130°54'0 0.0
2018-Feb-13 02:25N 33°56' E 130°54'0 0.0
2018-Feb-13 01:55N 33°56' E 130°54'0 0.0
2018-Feb-13 01:25N 33°56' E 130°54'0 0.0
2018-Feb-13 00:55N 33°56' E 130°54'0 0.0
2018-Feb-13 00:25N 33°56' E 130°54'0 0.4
2018-Feb-13 00:00N 33°56' E 130°54'2 4.1
2018-Feb-12 23:31N 33°55' E 130°56'611.2
2018-Feb-12 23:00N 33°58' E 131°01'510.6
2018-Feb-12 22:30N 33°55' E 131°07'5 8.3
2018-Feb-12 21:58N 33°53' E 131°11'0 0.1
2018-Feb-12 21:28N 33°53' E 131°11'0 0.0
2018-Feb-12 20:58N 33°53' E 131°11'0 0.0
2018-Feb-12 20:28N 33°53' E 131°11'0 0.0
2018-Feb-12 19:58N 33°53' E 131°11'0 0.0
2018-Feb-12 19:28N 33°53' E 131°11'0 0.0
2018-Feb-12 18:58N 33°53' E 131°11'0 0.0
2018-Feb-12 18:28N 33°53' E 131°11'0 0.0
2018-Feb-12 18:00N 33°53' E 131°11'4 8.0
2018-Feb-12 17:30N 33°52' E 131°16'510.9
2018-Feb-12 17:00N 33°51' E 131°23'510.5
2018-Feb-12 16:31N 33°50' E 131°29'610.4
2018-Feb-12 15:59N 33°49' E 131°35'1110.1
2018-Feb-12 14:55N 33°47' E 131°48'510.6
2018-Feb-12 14:29N 33°46' E 131°53'610.8
2018-Feb-12 13:55N 33°46' E 132°01'612.1
2018-Feb-12 13:23N 33°48' E 132°08'612.5
2018-Feb-12 12:55N 33°50' E 132°14'1512.4
2018-Feb-12 11:44N 33°53' E 132°32'312.4
2018-Feb-12 11:30N 33°54' E 132°35'611.6
2018-Feb-12 11:00N 33°57' E 132°41'  
Track history (hours):
 
Tides and Currents Weather Stations Pressure Air Temp Water Temp Dewpoint Dewpoint Depression Visibility Wind Speed Wind Dir Waves Ship Positions

Shinyo Maru

Last reported at 2018-Feb-21 13:16 UTC. Time now 2018-Feb-22 07:07 UTC.
Position N 34°27' E 134°03'.

Length 72 m; draft 3.8 m.

Type: Tanker. MMSI: 431005249.

Date/timePositionNaut miles runAvg speedWind from/ knotsBaromVisibWave heightAir tempDewpointWater temp
2018-Feb-21 13:16N 34°27' E 134°03'1713.3
2018-Feb-21 11:57N 34°22' E 134°23'713.1
2018-Feb-21 11:27N 34°19' E 134°30'612.8
2018-Feb-21 10:57N 34°16' E 134°37'912.5
2018-Feb-21 10:12N 34°08' E 134°44'312.3
2018-Feb-21 09:59N 34°06' E 134°46'812.3
2018-Feb-21 09:19N 33°60' E 134°52'412.6
2018-Feb-21 09:00N 33°57' E 134°55'611.8
2018-Feb-21 08:30N 33°53' E 135°00'16710.7
2018-Feb-20 16:52N 34°35' E 138°16'510.9
2018-Feb-20 16:22N 34°37' E 138°22'410.7
2018-Feb-20 16:00N 34°39' E 138°26'510.3
2018-Feb-20 15:28N 34°38' E 138°32'5 9.9
2018-Feb-20 15:00N 34°37' E 138°38'9 8.2
2018-Feb-20 13:54N 34°35' E 138°49'5 7.3
2018-Feb-20 13:16N 34°36' E 138°54'3 8.7
2018-Feb-20 12:57N 34°36' E 138°57'511.6
2018-Feb-20 12:30N 34°40' E 139°02'1013.4
2018-Feb-20 11:47N 34°48' E 139°09'2012.4
2018-Feb-20 10:08N 34°59' E 139°30'412.2
2018-Feb-20 09:47N 35°02' E 139°34'312.6
2018-Feb-20 09:30N 35°04' E 139°37'612.5
2018-Feb-20 08:59N 35°08' E 139°43'612.3
2018-Feb-20 08:30N 35°14' E 139°46'510.9
2018-Feb-20 08:00N 35°19' E 139°44'611.1
2018-Feb-20 07:30N 35°24' E 139°43'510.3
2018-Feb-20 07:00N 35°29' E 139°43'0 0.7
2018-Feb-20 06:29N 35°29' E 139°43'0 0.0
2018-Feb-20 05:59N 35°29' E 139°43'0 0.0
2018-Feb-20 05:29N 35°29' E 139°43'0 0.0
2018-Feb-20 04:56N 35°29' E 139°43'0 0.0
2018-Feb-20 04:29N 35°29' E 139°43'0 0.0
2018-Feb-20 04:00N 35°29' E 139°43'5 9.3
2018-Feb-20 03:30N 35°30' E 139°48'2 3.0
2018-Feb-20 03:00N 35°30' E 139°50'612.4
2018-Feb-20 02:29N 35°32' E 139°58'612.0
2018-Feb-20 01:58N 35°32' E 140°05'0 0.0
2018-Feb-19 23:44N 35°32' E 140°05'1 5.7
2018-Feb-19 23:31N 35°33' E 140°04'510.9
2018-Feb-19 23:00N 35°31' E 139°58'4 6.8
2018-Feb-19 22:29N 35°28' E 139°55'0 0.0
2018-Feb-19 22:00N 35°28' E 139°55'0 0.0
2018-Feb-19 21:30N 35°28' E 139°55'0 0.0
2018-Feb-19 21:00N 35°28' E 139°55'0 0.0
2018-Feb-19 20:30N 35°28' E 139°55'0 0.0
2018-Feb-19 20:00N 35°28' E 139°55'0 0.0
2018-Feb-19 19:30N 35°28' E 139°55'0 0.0
2018-Feb-19 19:00N 35°28' E 139°55'0 0.0
2018-Feb-19 18:30N 35°28' E 139°55'0 0.0
2018-Feb-19 18:00N 35°28' E 139°55'2 5.0
2018-Feb-19 17:30N 35°30' E 139°57'4 7.5
2018-Feb-19 17:00N 35°29' E 139°53'612.3
2018-Feb-19 16:30N 35°25' E 139°47'612.2
2018-Feb-19 16:00N 35°19' E 139°44'611.7
2018-Feb-19 15:30N 35°14' E 139°47'612.0
2018-Feb-19 15:00N 35°08' E 139°45'612.4
2018-Feb-19 14:30N 35°03' E 139°41'712.5
2018-Feb-19 13:54N 34°59' E 139°33'512.5
2018-Feb-19 13:29N 34°56' E 139°28'612.6
2018-Feb-19 12:58N 34°52' E 139°22'713.3
2018-Feb-19 12:28N 34°47' E 139°16'713.6
2018-Feb-19 11:59N 34°42' E 139°10'612.7
2018-Feb-19 11:30N 34°39' E 139°04'612.2
2018-Feb-19 11:00N 34°36' E 138°58'612.3
2018-Feb-19 10:30N 34°34' E 138°50'612.5
2018-Feb-19 10:00N 34°34' E 138°43'713.0
2018-Feb-19 09:30N 34°33' E 138°35'713.1
2018-Feb-19 09:00N 34°33' E 138°27'812.8
2018-Feb-19 08:22N 34°32' E 138°17'16311.1
2018-Feb-18 17:44N 33°45' E 135°09'313.0
2018-Feb-18 17:30N 33°47' E 135°06'613.2
2018-Feb-18 17:01N 33°52' E 135°01'713.1
2018-Feb-18 16:31N 33°57' E 134°56'713.0
2018-Feb-18 15:59N 34°02' E 134°51'612.8
2018-Feb-18 15:31N 34°07' E 134°46'713.5
2018-Feb-18 15:00N 34°12' E 134°41'713.5
2018-Feb-18 14:30N 34°17' E 134°35'612.6
2018-Feb-18 13:59N 34°19' E 134°27'2 0.1
2018-Feb-17 08:01N 34°18' E 134°30'112.0
2018-Feb-17 07:58N 34°18' E 134°31'511.4
2018-Feb-17 07:29N 34°16' E 134°37'10 9.9
2018-Feb-17 06:31N 34°09' E 134°44'111.4
2018-Feb-17 06:25N 34°08' E 134°45'511.2
2018-Feb-17 06:00N 34°04' E 134°49'611.2
2018-Feb-17 05:26N 33°60' E 134°54'511.3
2018-Feb-17 05:00N 33°56' E 134°58'610.7
2018-Feb-17 04:25N 33°52' E 135°04'16310.2
2018-Feb-16 12:27N 34°33' E 138°15'1212.0
2018-Feb-16 11:29N 34°35' E 138°29'711.9
2018-Feb-16 10:52N 34°35' E 138°38'911.8
2018-Feb-16 10:08N 34°35' E 138°49'512.5
2018-Feb-16 09:42N 34°36' E 138°55'412.3
2018-Feb-16 09:23N 34°38' E 138°59'513.2
2018-Feb-16 09:00N 34°42' E 139°03'712.5
2018-Feb-16 08:29N 34°47' E 139°07'2011.8
2018-Feb-16 06:46N 34°59' E 139°27'411.1
2018-Feb-16 06:24N 35°02' E 139°31'612.1
2018-Feb-16 05:52N 35°05' E 139°38'513.0
2018-Feb-16 05:30N 35°08' E 139°42'612.6
2018-Feb-16 05:00N 35°13' E 139°46'611.9
2018-Feb-16 04:30N 35°19' E 139°43'611.5
2018-Feb-16 04:00N 35°25' E 139°43'612.7
2018-Feb-16 03:30N 35°28' E 139°49'712.9
2018-Feb-16 03:00N 35°31' E 139°56'612.7
2018-Feb-16 02:30N 35°33' E 140°04'2 0.6
2018-Feb-15 23:12N 35°32' E 140°05'1 4.3
2018-Feb-15 23:00N 35°33' E 140°05'3 3.1
2018-Feb-15 22:08N 35°34' E 140°01'0 0.1
2018-Feb-15 21:56N 35°34' E 140°01'0 0.1
2018-Feb-15 21:26N 35°34' E 140°01'0 0.0
2018-Feb-15 20:59N 35°34' E 140°01'0 0.1
2018-Feb-15 20:26N 35°34' E 140°01'0 0.1
2018-Feb-15 19:56N 35°34' E 140°01'0 0.0
2018-Feb-15 19:26N 35°34' E 140°01'0 0.0
2018-Feb-15 18:56N 35°34' E 140°01'0 0.0
2018-Feb-15 18:26N 35°34' E 140°01'0 0.1
2018-Feb-15 17:56N 35°34' E 140°01'0 0.0
2018-Feb-15 17:26N 35°34' E 140°01'4 8.9
2018-Feb-15 17:00N 35°32' E 139°57'612.9
2018-Feb-15 16:31N 35°28' E 139°51'612.5
2018-Feb-15 16:01N 35°23' E 139°46'612.0
2018-Feb-15 15:30N 35°17' E 139°45'611.9
2018-Feb-15 15:00N 35°11' E 139°47'912.2
2018-Feb-15 14:16N 35°04' E 139°41'312.4
2018-Feb-15 14:00N 35°02' E 139°38'712.5
2018-Feb-15 13:25N 34°57' E 139°31'613.4
2018-Feb-15 13:00N 34°54' E 139°25'713.8
2018-Feb-15 12:30N 34°49' E 139°19'713.4
2018-Feb-15 12:00N 34°45' E 139°13'713.1
2018-Feb-15 11:30N 34°40' E 139°07'713.7
2018-Feb-15 11:01N 34°37' E 138°60'714.1
2018-Feb-15 10:30N 34°34' E 138°52'712.9
2018-Feb-15 09:57N 34°34' E 138°43'612.5
2018-Feb-15 09:29N 34°33' E 138°36'712.5
2018-Feb-15 08:57N 34°33' E 138°28'612.7
2018-Feb-15 08:28N 34°33' E 138°20'1013.3
2018-Feb-15 07:44N 34°32' E 138°09'4412.3
2018-Feb-15 04:10N 34°32' E 137°15'212.8
2018-Feb-15 04:00N 34°32' E 137°13'812.6
2018-Feb-15 03:23N 34°32' E 137°03'911.1
2018-Feb-15 02:36N 34°40' E 136°58'313.3
2018-Feb-15 02:21N 34°43' E 136°59'413.0
2018-Feb-15 02:00N 34°47' E 136°57'4 1.3
2018-Feb-14 22:51N 34°52' E 136°56'2 5.3
2018-Feb-14 22:31N 34°50' E 136°57'712.0
2018-Feb-14 21:57N 34°43' E 136°59'612.2
2018-Feb-14 21:30N 34°38' E 136°58'105 8.8
2018-Feb-14 09:38N 33°48' E 135°07'311.8
2018-Feb-14 09:24N 33°50' E 135°04'511.8
2018-Feb-14 09:01N 33°53' E 135°00'611.2
2018-Feb-14 08:30N 33°57' E 134°55'611.7
2018-Feb-14 08:00N 34°02' E 134°51'612.1
2018-Feb-14 07:30N 34°06' E 134°47'612.1
2018-Feb-14 07:00N 34°11' E 134°42'612.0
2018-Feb-14 06:29N 34°16' E 134°37'611.9
2018-Feb-14 06:00N 34°18' E 134°31'612.1
2018-Feb-14 05:31N 34°20' E 134°24'80 5.5
2018-Feb-13 14:47N 34°04' E 132°49'412.2
2018-Feb-13 14:29N 34°01' E 132°46'612.2
2018-Feb-13 14:00N 33°57' E 132°42'612.5
2018-Feb-13 13:30N 33°53' E 132°35'1012.6
2018-Feb-13 12:43N 33°50' E 132°24'312.6
2018-Feb-13 12:30N 33°50' E 132°21'712.9
2018-Feb-13 11:56N 33°49' E 132°12'612.8
2018-Feb-13 11:26N 33°46' E 132°05'612.6
2018-Feb-13 10:58N 33°45' E 131°58'613.0
2018-Feb-13 10:29N 33°46' E 131°51'612.8
2018-Feb-13 10:00N 33°47' E 131°43'612.5
2018-Feb-13 09:30N 33°48' E 131°36'612.6
2018-Feb-13 09:00N 33°50' E 131°29'612.5
2018-Feb-13 08:30N 33°51' E 131°21'612.3
2018-Feb-13 08:00N 33°53' E 131°14'612.7
2018-Feb-13 07:30N 33°55' E 131°07'612.7
2018-Feb-13 07:00N 33°58' E 131°01'612.3
2018-Feb-13 06:31N 33°54' E 130°55'5 9.3
2018-Feb-13 06:00N 33°58' E 130°52'0 0.0
2018-Feb-13 05:27N 33°58' E 130°52'0 0.0
2018-Feb-13 05:00N 33°58' E 130°52'0 0.0
2018-Feb-13 04:30N 33°58' E 130°52'0 0.0
2018-Feb-13 04:00N 33°58' E 130°52'0 0.1
2018-Feb-13 03:30N 33°58' E 130°52'2 4.2
2018-Feb-13 02:55N 33°56' E 130°54'0 0.0
2018-Feb-13 02:25N 33°56' E 130°54'0 0.0
2018-Feb-13 01:55N 33°56' E 130°54'0 0.0
2018-Feb-13 01:25N 33°56' E 130°54'0 0.0
2018-Feb-13 00:55N 33°56' E 130°54'0 0.0
2018-Feb-13 00:25N 33°56' E 130°54'0 0.4
2018-Feb-13 00:00N 33°56' E 130°54'2 4.1
2018-Feb-12 23:31N 33°55' E 130°56'611.2
2018-Feb-12 23:00N 33°58' E 131°01'510.6
2018-Feb-12 22:30N 33°55' E 131°07'5 8.3
2018-Feb-12 21:58N 33°53' E 131°11'0 0.1
2018-Feb-12 21:28N 33°53' E 131°11'0 0.0
2018-Feb-12 20:58N 33°53' E 131°11'0 0.0
2018-Feb-12 20:28N 33°53' E 131°11'0 0.0
2018-Feb-12 19:58N 33°53' E 131°11'0 0.0
2018-Feb-12 19:28N 33°53' E 131°11'0 0.0
2018-Feb-12 18:58N 33°53' E 131°11'0 0.0
2018-Feb-12 18:28N 33°53' E 131°11'0 0.0
2018-Feb-12 18:00N 33°53' E 131°11'4 8.0
2018-Feb-12 17:30N 33°52' E 131°16'510.9
2018-Feb-12 17:00N 33°51' E 131°23'510.5
2018-Feb-12 16:31N 33°50' E 131°29'610.4
2018-Feb-12 15:59N 33°49' E 131°35'1110.1
2018-Feb-12 14:55N 33°47' E 131°48'510.6
2018-Feb-12 14:29N 33°46' E 131°53'610.8
2018-Feb-12 13:55N 33°46' E 132°01'612.1
2018-Feb-12 13:23N 33°48' E 132°08'612.5
2018-Feb-12 12:55N 33°50' E 132°14'1512.4
2018-Feb-12 11:44N 33°53' E 132°32'312.4
2018-Feb-12 11:30N 33°54' E 132°35'611.6
2018-Feb-12 11:00N 33°57' E 132°41'  

Dump ship's entire track history